Time;durP1;ratioP1;P1;durP2;ratioP2;P2;SDS_P1;SDS_P2;PMS_P1;PMS_P2;Temp;Humidity;BMP_temperature;BMP_pressure;BME280_temperature;BME280_humidity;BME280_pressure;Samples;Min_cycle;Max_cycle;Signal;HPM_P1;HPM_P2
2022/02/03 00:03:04;;;;;;;18.92;13.40;;;;;;;;;;10273610;28;20080;-63
2022/02/03 00:08:11;;;;;;;21.90;14.93;;;;;;;;;;10263327;28;20424;-62
2022/02/03 00:29:00;;;;;;;17.17;12.40;;;;;;;;;;10243755;28;20045;-63
2022/02/03 00:34:05;;;;;;;23.60;15.38;;;;;;;;;;10254404;28;20079;-63
2022/02/03 00:49:29;;;;;;;20.35;13.95;;;;;;;;;;10243591;28;20076;-63
2022/02/03 00:54:31;;;;;;;20.45;14.27;;;;;;;;;;10240354;28;20073;-64
2022/02/03 00:59:30;;;;;;;22.05;14.27;;;;;;;;;;10243030;28;20073;-64
2022/02/03 01:04:31;;;;;;;16.05;14.02;;;;;;;;;;10242006;28;20069;-64
2022/02/03 01:09:32;;;;;;;19.02;15.48;;;;;;;;;;10239721;28;20084;-64
2022/02/03 01:14:42;;;;;;;19.55;13.60;;;;;;;;;;10239801;28;20083;-64
2022/02/03 01:20:19;;;;;;;21.27;14.93;;;;;;;;;;10242585;28;20077;-64
2022/02/03 01:46:28;;;;;;;19.85;14.68;;;;;;;;;;10238615;28;20077;-64
2022/02/03 01:51:41;;;;;;;20.02;15.07;;;;;;;;;;10247774;28;20076;-64
2022/02/03 01:56:41;;;;;;;21.33;16.70;;;;;;;;;;10237495;28;20080;-63
2022/02/03 02:01:39;;;;;;;27.25;17.15;;;;;;;;;;10236546;28;20046;-64
2022/02/03 02:06:48;;;;;;;19.70;15.00;;;;;;;;;;10239635;28;20478;-64
2022/02/03 02:11:57;;;;;;;25.63;15.75;;;;;;;;;;10240262;28;20612;-64
2022/02/03 02:38:28;;;;;;;25.27;15.25;;;;;;;;;;10239158;28;20389;-64
2022/02/03 02:43:32;;;;;;;24.13;17.02;;;;;;;;;;10238465;28;20152;-63
2022/02/03 02:48:37;;;;;;;23.60;17.27;;;;;;;;;;10238551;28;20088;-64
2022/02/03 02:53:55;;;;;;;20.57;15.90;;;;;;;;;;10236424;28;20053;-64
2022/02/03 02:59:18;;;;;;;23.00;16.55;;;;;;;;;;10246352;28;20332;-64
2022/02/03 03:30:57;;;;;;;39.05;24.30;;;;;;;;;;10246024;28;19932;-64
2022/02/03 03:35:59;;;;;;;61.20;31.98;;;;;;;;;;10246642;28;20095;-63
2022/02/03 03:40:58;;;;;;;27.13;16.08;;;;;;;;;;10246094;28;20163;-62
2022/02/03 03:46:01;;;;;;;25.45;16.55;;;;;;;;;;10254864;28;20115;-62
2022/02/03 03:51:02;;;;;;;26.17;19.08;;;;;;;;;;10239642;28;20581;-63
2022/02/03 03:56:07;;;;;;;22.10;16.88;;;;;;;;;;10239323;28;20494;-63
2022/02/03 04:39:03;;;;;;;31.20;23.13;;;;;;;;;;10243574;28;20081;-64
2022/02/03 04:44:40;;;;;;;39.65;26.02;;;;;;;;;;10246667;28;20077;-64
2022/02/03 04:55:39;;;;;;;46.97;28.13;;;;;;;;;;10240197;28;20083;-64
2022/02/03 05:06:06;;;;;;;34.83;24.60;;;;;;;;;;10243400;28;20076;-63
2022/02/03 05:11:24;;;;;;;36.85;24.90;;;;;;;;;;10238367;28;20079;-63
2022/02/03 05:33:15;;;;;;;41.20;26.70;;;;;;;;;;10238844;28;20515;-63
2022/02/03 05:44:09;;;;;;;29.35;22.58;;;;;;;;;;10247293;28;20076;-63
2022/02/03 05:54:49;;;;;;;34.38;25.50;;;;;;;;;;10236271;28;20045;-63
2022/02/03 06:05:10;;;;;;;55.50;36.88;;;;;;;;;;10238376;28;20064;-63
2022/02/03 06:15:35;;;;;;;35.60;27.13;;;;;;;;;;10237531;28;20087;-63
2022/02/03 06:20:59;;;;;;;43.78;28.42;;;;;;;;;;10245414;28;20083;-62
2022/02/03 06:31:15;;;;;;;38.03;28.17;;;;;;;;;;10241804;28;20119;-62
2022/02/03 06:36:13;;;;;;;36.30;25.42;;;;;;;;;;10245656;28;20056;-62
2022/02/03 06:41:13;;;;;;;50.97;28.95;;;;;;;;;;10235184;28;20080;-62
2022/02/03 06:46:13;;;;;;;34.92;25.90;;;;;;;;;;10235690;28;20069;-62
2022/02/03 06:51:16;;;;;;;36.08;25.77;;;;;;;;;;10237875;28;20065;-62
2022/02/03 06:56:27;;;;;;;32.30;24.45;;;;;;;;;;10236337;28;20550;-62
2022/02/03 07:01:29;;;;;;;35.78;22.83;;;;;;;;;;10244633;28;20461;-61
2022/02/03 07:06:28;;;;;;;47.63;30.30;;;;;;;;;;10237185;28;20073;-62
2022/02/03 07:11:31;;;;;;;39.78;27.02;;;;;;;;;;10237934;28;20097;-63
2022/02/03 07:16:30;;;;;;;38.70;24.23;;;;;;;;;;10235509;28;20434;-63
2022/02/03 07:21:28;;;;;;;51.58;29.75;;;;;;;;;;10236104;28;20080;-62
2022/02/03 07:26:27;;;;;;;73.05;45.15;;;;;;;;;;10234234;28;20087;-62
2022/02/03 07:31:28;;;;;;;38.60;28.30;;;;;;;;;;10241646;28;20077;-63
2022/02/03 07:36:26;;;;;;;85.68;53.45;;;;;;;;;;10240294;28;20476;-63
2022/02/03 07:41:24;;;;;;;74.00;48.53;;;;;;;;;;10236635;28;20084;-63
2022/02/03 07:46:22;;;;;;;42.30;29.30;;;;;;;;;;10234331;28;20518;-63
2022/02/03 07:51:22;;;;;;;47.55;33.35;;;;;;;;;;10239917;28;20076;-63
2022/02/03 07:56:21;;;;;;;42.75;34.15;;;;;;;;;;10246785;28;20474;-63
2022/02/03 08:01:20;;;;;;;47.72;33.10;;;;;;;;;;10245788;28;20107;-63
2022/02/03 08:06:23;;;;;;;43.75;30.75;;;;;;;;;;10246157;28;20068;-63
2022/02/03 08:11:27;;;;;;;46.05;30.55;;;;;;;;;;10249114;28;20069;-63
2022/02/03 08:16:30;;;;;;;48.38;34.00;;;;;;;;;;10245643;28;20073;-63
2022/02/03 08:21:30;;;;;;;39.53;24.02;;;;;;;;;;10250312;28;20075;-63
2022/02/03 08:26:45;;;;;;;35.30;25.08;;;;;;;;;;10245358;28;20506;-63
2022/02/03 08:31:52;;;;;;;38.27;28.27;;;;;;;;;;10240458;28;20064;-63
2022/02/03 08:36:50;;;;;;;43.42;29.08;;;;;;;;;;10242846;28;20065;-63
2022/02/03 08:41:50;;;;;;;27.13;22.45;;;;;;;;;;10243330;28;20065;-63
2022/02/03 08:46:48;;;;;;;31.52;21.45;;;;;;;;;;10240907;28;20559;-62
2022/02/03 08:51:47;;;;;;;31.33;22.98;;;;;;;;;;10242546;28;20463;-63
2022/02/03 08:56:50;;;;;;;26.73;19.70;;;;;;;;;;10241593;28;20073;-63
2022/02/03 09:39:06;;;;;;;49.13;29.35;;;;;;;;;;10239285;28;20076;-62
2022/02/03 10:00:20;;;;;;;35.85;26.08;;;;;;;;;;10234749;28;20073;-62
2022/02/03 10:05:31;;;;;;;47.20;32.00;;;;;;;;;;10254877;28;20360;-62
2022/02/03 10:10:33;;;;;;;44.78;31.35;;;;;;;;;;10234810;28;20465;-60
2022/02/03 10:15:31;;;;;;;34.50;24.17;;;;;;;;;;10229982;28;20097;-61
2022/02/03 10:20:31;;;;;;;36.35;26.92;;;;;;;;;;10242541;28;20076;-63
2022/02/03 10:25:33;;;;;;;39.78;27.38;;;;;;;;;;10244037;28;20077;-62
2022/02/03 10:30:36;;;;;;;61.97;39.10;;;;;;;;;;10238386;28;20179;-60
2022/02/03 10:35:41;;;;;;;52.25;33.35;;;;;;;;;;10240333;28;20069;-63
2022/02/03 10:40:55;;;;;;;43.58;29.95;;;;;;;;;;10240736;28;20080;-62
2022/02/03 10:46:13;;;;;;;50.03;32.85;;;;;;;;;;10238201;28;20068;-63
2022/02/03 10:51:39;;;;;;;64.18;42.35;;;;;;;;;;10240488;28;20069;-61
2022/02/03 10:57:15;;;;;;;59.58;39.55;;;;;;;;;;10237462;28;20072;-62
2022/02/03 11:02:34;;;;;;;63.58;40.10;;;;;;;;;;10236790;28;20069;-62
2022/02/03 11:07:40;;;;;;;32.53;23.90;;;;;;;;;;10237055;28;20072;-62
2022/02/03 11:12:39;;;;;;;36.35;26.83;;;;;;;;;;10258737;28;20499;-62
2022/02/03 11:17:38;;;;;;;35.55;26.38;;;;;;;;;;10235194;28;20069;-61
2022/02/03 11:22:49;;;;;;;41.45;30.35;;;;;;;;;;10235899;28;20475;-62
2022/02/03 11:28:08;;;;;;;35.78;28.02;;;;;;;;;;10244051;28;20084;-62
2022/02/03 11:38:48;;;;;;;32.63;26.67;;;;;;;;;;10251442;28;20077;-62
2022/02/03 11:44:24;;;;;;;31.17;22.73;;;;;;;;;;10248669;28;20468;-62
2022/02/03 12:11:20;;;;;;;49.17;32.78;;;;;;;;;;10238819;28;20076;-62
2022/02/03 12:16:24;;;;;;;44.08;29.75;;;;;;;;;;10264386;28;20076;-62
2022/02/03 12:21:26;;;;;;;69.15;40.88;;;;;;;;;;10257185;28;20072;-61
2022/02/03 12:26:33;;;;;;;49.30;33.47;;;;;;;;;;10260365;28;20068;-62
2022/02/03 12:42:06;;;;;;;34.65;24.85;;;;;;;;;;10242370;28;20467;-62
2022/02/03 12:47:05;;;;;;;34.17;22.42;;;;;;;;;;10238873;28;20069;-61
2022/02/03 12:52:18;;;;;;;32.72;23.95;;;;;;;;;;10244182;28;20068;-62
2022/02/03 12:57:27;;;;;;;47.75;33.08;;;;;;;;;;10246489;28;20068;-62
2022/02/03 13:02:26;;;;;;;44.67;33.05;;;;;;;;;;10241350;28;20065;-62
2022/02/03 13:07:28;;;;;;;49.30;36.72;;;;;;;;;;10245268;28;20486;-62
2022/02/03 13:12:34;;;;;;;61.05;47.28;;;;;;;;;;10238350;28;20080;-63
2022/02/03 13:17:37;;;;;;;36.80;27.13;;;;;;;;;;10240175;28;20080;-62
2022/02/03 13:22:43;;;;;;;34.90;25.75;;;;;;;;;;10241256;28;20083;-62
2022/02/03 13:27:51;;;;;;;36.47;28.25;;;;;;;;;;10240111;28;20482;-62
2022/02/03 13:32:57;;;;;;;34.88;26.38;;;;;;;;;;10237412;28;20054;-62
2022/02/03 13:38:00;;;;;;;30.73;25.05;;;;;;;;;;10242490;28;20064;-62
2022/02/03 13:43:00;;;;;;;104.90;54.05;;;;;;;;;;10239954;28;20080;-62
2022/02/03 13:47:59;;;;;;;50.58;30.10;;;;;;;;;;10259514;28;20484;-61
2022/02/03 13:53:03;;;;;;;39.55;25.38;;;;;;;;;;10240800;28;20073;-62
2022/02/03 14:19:42;;;;;;;36.25;27.95;;;;;;;;;;10236235;28;20041;-63
2022/02/03 14:30:01;;;;;;;37.58;23.67;;;;;;;;;;10238849;28;20084;-63
2022/02/03 14:34:59;;;;;;;29.27;19.35;;;;;;;;;;10237586;28;20090;-62
2022/02/03 14:40:13;;;;;;;30.77;23.08;;;;;;;;;;10238546;28;20073;-63
2022/02/03 14:45:15;;;;;;;47.70;33.72;;;;;;;;;;10237839;28;20072;-62
2022/02/03 14:50:13;;;;;;;54.47;36.03;;;;;;;;;;10239054;28;20077;-63
2022/02/03 15:00:30;;;;;;;105.15;58.33;;;;;;;;;;10234038;28;20080;-63
2022/02/03 15:05:31;;;;;;;142.50;70.97;;;;;;;;;;10261023;28;20066;-64
2022/02/03 15:10:45;;;;;;;259.05;123.38;;;;;;;;;;10241996;28;20093;-63
2022/02/03 15:15:45;;;;;;;74.32;44.03;;;;;;;;;;10242807;28;20072;-63
2022/02/03 15:20:43;;;;;;;74.30;40.53;;;;;;;;;;10246444;28;20042;-63
2022/02/03 15:25:41;;;;;;;43.38;25.33;;;;;;;;;;10244329;28;20070;-63
2022/02/03 15:30:40;;;;;;;63.40;39.90;;;;;;;;;;10243931;28;20093;-63
2022/02/03 15:35:44;;;;;;;143.05;72.70;;;;;;;;;;10246330;28;20053;-63
2022/02/03 15:40:43;;;;;;;55.63;32.45;;;;;;;;;;10245640;28;20053;-63
2022/02/03 15:45:45;;;;;;;34.70;23.08;;;;;;;;;;10242516;28;20530;-63
2022/02/03 16:17:08;;;;;;;153.15;82.82;;;;;;;;;;10267156;28;20073;-63
2022/02/03 16:22:19;;;;;;;66.28;45.55;;;;;;;;;;10250917;28;20099;-63
2022/02/03 16:50:17;;;;;;;178.65;100.07;;;;;;;;;;10239805;28;20506;-63
2022/02/03 16:54:15;;;;;;;44.17;32.53;;;;;;;;;;10231033;28;20079;-63
2022/02/03 16:59:14;;;;;;;56.05;41.20;;;;;;;;;;10243224;28;20084;-63
2022/02/03 17:04:17;;;;;;;63.10;41.45;;;;;;;;;;10242972;28;20068;-63
2022/02/03 17:09:17;;;;;;;50.88;33.40;;;;;;;;;;10239808;28;20081;-63
2022/02/03 17:14:15;;;;;;;63.53;40.13;;;;;;;;;;10242675;28;20065;-63
2022/02/03 17:19:14;;;;;;;52.85;33.17;;;;;;;;;;10244840;28;20480;-63
2022/02/03 17:24:12;;;;;;;47.78;27.90;;;;;;;;;;10253400;28;20068;-63
2022/02/03 17:29:16;;;;;;;59.10;35.92;;;;;;;;;;10244668;28;20465;-63
2022/02/03 17:45:38;;;;;;;30.15;23.90;;;;;;;;;;10240981;28;20081;-62
2022/02/03 18:11:45;;;;;;;59.17;34.88;;;;;;;;;;10238193;28;20080;-64
2022/02/03 18:54:00;;;;;;;62.20;41.27;;;;;;;;;;10224432;28;20075;-62
2022/02/03 18:59:07;;;;;;;109.65;57.30;;;;;;;;;;10234299;28;20049;-63
2022/02/03 19:10:14;;;;;;;51.38;36.17;;;;;;;;;;10236767;28;20079;-63
2022/02/03 19:15:38;;;;;;;57.83;43.03;;;;;;;;;;10236456;28;20072;-62
2022/02/03 20:03:29;;;;;;;71.45;40.28;;;;;;;;;;10242463;28;20079;-62
2022/02/03 20:08:36;;;;;;;62.83;35.33;;;;;;;;;;10243926;28;20072;-63
2022/02/03 20:13:34;;;;;;;58.38;33.42;;;;;;;;;;10241074;28;20092;-63
2022/02/03 20:18:33;;;;;;;72.50;44.13;;;;;;;;;;10242745;28;20069;-63
2022/02/03 20:23:38;;;;;;;40.03;21.83;;;;;;;;;;10244941;28;20084;-63
2022/02/03 20:28:36;;;;;;;39.13;19.88;;;;;;;;;;10245551;28;20072;-63
2022/02/03 20:33:34;;;;;;;37.28;20.17;;;;;;;;;;10250012;28;20080;-62
2022/02/03 20:38:34;;;;;;;25.20;16.95;;;;;;;;;;10247518;28;20064;-62
2022/02/03 20:43:32;;;;;;;36.05;20.85;;;;;;;;;;10238816;28;20065;-62
2022/02/03 20:48:31;;;;;;;23.40;15.20;;;;;;;;;;10241584;28;20094;-63
2022/02/03 20:53:29;;;;;;;19.10;13.68;;;;;;;;;;10244105;28;20069;-63
2022/02/03 20:58:29;;;;;;;22.00;18.15;;;;;;;;;;10239757;28;20069;-63
2022/02/03 21:03:32;;;;;;;17.15;13.70;;;;;;;;;;10239318;28;20471;-63
2022/02/03 21:08:33;;;;;;;19.63;13.23;;;;;;;;;;10239992;28;20049;-63
2022/02/03 21:13:33;;;;;;;15.90;13.18;;;;;;;;;;10243092;28;20080;-63
2022/02/03 21:18:35;;;;;;;18.33;13.05;;;;;;;;;;10248817;28;20072;-63
2022/02/03 21:23:33;;;;;;;15.25;11.27;;;;;;;;;;10244299;28;20072;-63
2022/02/03 21:28:35;;;;;;;17.10;12.18;;;;;;;;;;10244602;28;20077;-63
2022/02/03 21:33:44;;;;;;;16.33;11.82;;;;;;;;;;10244352;28;20076;-63
2022/02/03 21:38:43;;;;;;;19.92;15.07;;;;;;;;;;10243005;28;20069;-62
2022/02/03 21:43:43;;;;;;;20.35;15.00;;;;;;;;;;10243011;28;20096;-62
2022/02/03 21:48:47;;;;;;;21.95;14.98;;;;;;;;;;10243554;28;20497;-62
2022/02/03 21:53:46;;;;;;;22.00;15.85;;;;;;;;;;10237194;28;20069;-62
2022/02/03 21:58:45;;;;;;;18.38;14.02;;;;;;;;;;10235775;28;20076;-62
2022/02/03 22:03:45;;;;;;;58.88;33.08;;;;;;;;;;10236350;28;20073;-62
2022/02/03 22:08:43;;;;;;;45.45;29.00;;;;;;;;;;10237092;28;20072;-62
2022/02/03 22:13:41;;;;;;;36.97;23.60;;;;;;;;;;10236928;28;20096;-62
2022/02/03 22:18:44;;;;;;;31.75;20.60;;;;;;;;;;10238779;28;20458;-62
2022/02/03 22:23:52;;;;;;;34.30;21.40;;;;;;;;;;10237718;28;20108;-62
2022/02/03 22:40:43;;;;;;;33.10;20.27;;;;;;;;;;10304794;28;20087;-61
2022/02/03 22:45:24;;;;;;;27.65;17.42;;;;;;;;;;10312936;28;20077;-61
2022/02/03 22:50:24;;;;;;;32.55;20.23;;;;;;;;;;10311196;28;20142;-61
2022/02/03 22:55:22;;;;;;;40.47;26.05;;;;;;;;;;10307173;28;20060;-61
2022/02/03 23:00:36;;;;;;;34.53;22.08;;;;;;;;;;10313097;28;20059;-61
2022/02/03 23:05:36;;;;;;;24.95;18.00;;;;;;;;;;10312269;28;20072;-61
2022/02/03 23:10:48;;;;;;;28.15;19.05;;;;;;;;;;10313014;28;20079;-60
2022/02/03 23:16:01;;;;;;;25.30;16.98;;;;;;;;;;10312202;28;20069;-62
2022/02/03 23:21:28;;;;;;;21.38;14.35;;;;;;;;;;10314974;28;20072;-62
2022/02/03 23:26:28;;;;;;;21.35;13.55;;;;;;;;;;10315017;28;20060;-62
2022/02/03 23:31:35;;;;;;;18.90;15.07;;;;;;;;;;10305494;28;20474;-61
2022/02/03 23:36:36;;;;;;;17.38;12.93;;;;;;;;;;10311210;28;20095;-61
